Ag Nektarios Aiginas — SX7083 — position and weather

sailwx.info

Track history (hours):
 
Tides and Currents Weather Stations Pressure Air Temp Water Temp Dewpoint Dewpoint Depression Visibility Wind Speed Wind Dir Waves Ship Positions

Ag Nektarios Aiginas

Last reported at 2018-Jun-18 13:01 UTC. Time now 2018-Jun-18 13:03 UTC.
Position N 37°57' E 023°38'.

Length 75 m; draft 2.7 m.

Type: Passenger vessel. MMSI: 237021400.

Date/timePositionNaut miles runAvg speedWind from/ knotsBaromVisibWave heightAir tempDewpointWater temp
2018-Jun-18 13:01N 37°57' E 023°38'0 0.0
2018-Jun-18 12:31N 37°57' E 023°38'5 9.8
2018-Jun-18 12:01N 37°53' E 023°35'713.0
2018-Jun-18 11:31N 37°48' E 023°29'4 8.8
2018-Jun-18 11:01N 37°45' E 023°25'2 3.2
2018-Jun-18 10:30N 37°46' E 023°25'612.9
2018-Jun-18 10:01N 37°50' E 023°32'612.7
2018-Jun-18 09:31N 37°55' E 023°36'2 4.5
2018-Jun-18 09:01N 37°57' E 023°39'0 0.9
2018-Jun-18 08:31N 37°56' E 023°38'612.3
2018-Jun-18 08:01N 37°52' E 023°33'612.8
2018-Jun-18 07:31N 37°47' E 023°27'3 5.9
2018-Jun-18 07:00N 37°45' E 023°25'2 4.8
2018-Jun-18 06:31N 37°47' E 023°26'713.0
2018-Jun-18 06:00N 37°51' E 023°33'612.8
2018-Jun-18 05:30N 37°56' E 023°37'1 1.7
2018-Jun-18 05:00N 37°57' E 023°38'0 0.0
2018-Jun-18 04:30N 37°57' E 023°38'0 0.0
2018-Jun-17 20:12N 37°57' E 023°38'0 0.0
2018-Jun-17 20:00N 37°57' E 023°38'5 9.8
2018-Jun-17 19:30N 37°53' E 023°34'612.8
2018-Jun-17 19:00N 37°49' E 023°29'5 7.8
2018-Jun-17 18:25N 37°45' E 023°25'0 0.0
2018-Jun-17 17:59N 37°45' E 023°25'2 3.2
2018-Jun-17 17:30N 37°46' E 023°25'713.3
2018-Jun-17 17:00N 37°50' E 023°32'713.1
2018-Jun-17 16:30N 37°56' E 023°37'1 2.9
2018-Jun-17 16:00N 37°57' E 023°38'510.8
2018-Jun-17 15:30N 37°52' E 023°34'612.7
2018-Jun-17 15:00N 37°48' E 023°28'4 6.9
2018-Jun-17 14:27N 37°45' E 023°25'0 0.0
2018-Jun-17 14:00N 37°45' E 023°25'4 7.1
2018-Jun-17 13:30N 37°48' E 023°28'613.1
2018-Jun-17 13:00N 37°52' E 023°34'611.7
2018-Jun-17 12:30N 37°57' E 023°39'0 0.0
2018-Jun-17 12:00N 37°57' E 023°39'5 9.2
2018-Jun-17 11:30N 37°53' E 023°35'612.9
2018-Jun-17 11:00N 37°49' E 023°29'5 9.4
2018-Jun-17 10:30N 37°45' E 023°26'0 0.0
2018-Jun-17 10:00N 37°45' E 023°26'4 7.2
2018-Jun-17 09:30N 37°48' E 023°28'713.1
2018-Jun-17 09:00N 37°52' E 023°34'611.5
2018-Jun-17 08:30N 37°57' E 023°39'0 0.0
2018-Jun-17 08:00N 37°57' E 023°39'0 0.0
2018-Jun-17 07:30N 37°57' E 023°39'0 0.0
2018-Jun-16 16:51N 37°57' E 023°39'1 4.3
2018-Jun-16 16:31N 37°56' E 023°37'612.9
2018-Jun-16 16:01N 37°50' E 023°32'713.2
2018-Jun-16 15:31N 37°47' E 023°26'2 3.1
2018-Jun-16 14:52N 37°45' E 023°25'1 3.6
2018-Jun-16 14:30N 37°46' E 023°25'612.8
2018-Jun-16 14:01N 37°50' E 023°31'612.8
2018-Jun-16 13:31N 37°55' E 023°36'3 5.2
2018-Jun-16 13:01N 37°57' E 023°39'1 2.7
2018-Jun-16 12:30N 37°56' E 023°37'713.2
2018-Jun-16 12:00N 37°51' E 023°32'713.1
2018-Jun-16 11:30N 37°47' E 023°25'2 3.8
2018-Jun-16 11:00N 37°45' E 023°26'1 2.8
2018-Jun-16 10:30N 37°46' E 023°25'613.1
2018-Jun-16 10:01N 37°50' E 023°31'713.0
2018-Jun-16 09:31N 37°55' E 023°36'2 4.4
2018-Jun-16 09:01N 37°57' E 023°39'0 0.3
2018-Jun-16 08:31N 37°57' E 023°38'612.1
2018-Jun-16 08:00N 37°52' E 023°34'713.0
2018-Jun-16 07:30N 37°48' E 023°27'3 6.2
2018-Jun-16 07:00N 37°45' E 023°25'2 4.3
2018-Jun-16 06:30N 37°47' E 023°26'612.9
2018-Jun-16 06:01N 37°51' E 023°32'712.9
2018-Jun-16 05:30N 37°56' E 023°37'1 2.6
2018-Jun-16 05:00N 37°57' E 023°38'0 0.0
2018-Jun-15 17:02N 37°57' E 023°38'0 0.0
2018-Jun-15 17:00N 37°57' E 023°38'3 6.2
2018-Jun-15 16:29N 37°54' E 023°37'510.7
2018-Jun-15 16:00N 37°50' E 023°33'713.5
2018-Jun-15 15:30N 37°46' E 023°25'2 3.6
2018-Jun-15 15:00N 37°45' E 023°25'3 5.7
2018-Jun-15 14:30N 37°47' E 023°28'611.2
2018-Jun-15 14:00N 37°51' E 023°33'611.7
2018-Jun-15 13:30N 37°56' E 023°37'2 3.2
2018-Jun-15 13:00N 37°57' E 023°39'0 0.0
2018-Jun-15 12:30N 37°57' E 023°39'5 9.9
2018-Jun-15 12:00N 37°53' E 023°35'712.7
2018-Jun-15 11:29N 37°48' E 023°29'4 9.0
2018-Jun-15 11:00N 37°45' E 023°25'2 3.1
2018-Jun-15 10:30N 37°46' E 023°25'612.5
2018-Jun-15 10:00N 37°50' E 023°31'612.7
2018-Jun-15 09:30N 37°55' E 023°36'2 4.9
2018-Jun-15 09:00N 37°57' E 023°39'0 0.7
2018-Jun-15 08:30N 37°57' E 023°38'612.1
2018-Jun-15 08:00N 37°52' E 023°33'612.9
2018-Jun-15 07:30N 37°48' E 023°27'3 6.1
2018-Jun-15 07:00N 37°45' E 023°25'3 5.2
2018-Jun-15 06:30N 37°47' E 023°26'612.8
2018-Jun-15 06:00N 37°51' E 023°33'712.4
2018-Jun-15 05:28N 37°56' E 023°38'0 1.0
2018-Jun-15 05:00N 37°57' E 023°39'0 0.0
2018-Jun-15 04:30N 37°57' E 023°39'0 0.0
2018-Jun-14 16:49N 37°57' E 023°39'1 3.8
2018-Jun-14 16:30N 37°56' E 023°37'713.1
2018-Jun-14 16:00N 37°51' E 023°32'713.4
2018-Jun-14 15:30N 37°47' E 023°26'2 3.9
2018-Jun-14 15:00N 37°45' E 023°25'1 2.7
2018-Jun-14 14:30N 37°46' E 023°25'612.7
2018-Jun-14 14:00N 37°50' E 023°31'613.0
2018-Jun-14 13:30N 37°55' E 023°36'2 4.7
2018-Jun-14 13:00N 37°57' E 023°39'0 0.0
2018-Jun-14 12:30N 37°57' E 023°39'5 9.9
2018-Jun-14 12:00N 37°53' E 023°35'612.9
2018-Jun-14 11:30N 37°48' E 023°29'4 8.9
2018-Jun-14 11:00N 37°45' E 023°25'1 2.5
2018-Jun-14 10:30N 37°46' E 023°25'612.7
2018-Jun-14 10:00N 37°50' E 023°31'613.0
2018-Jun-14 09:30N 37°55' E 023°36'3 5.2
2018-Jun-14 09:00N 37°57' E 023°39'0 0.3
2018-Jun-14 08:30N 37°57' E 023°38'612.0
2018-Jun-14 08:00N 37°52' E 023°34'713.0
2018-Jun-14 07:30N 37°48' E 023°28'3 7.0
2018-Jun-14 07:00N 37°45' E 023°25'2 5.0
2018-Jun-14 06:30N 37°47' E 023°27'612.7
2018-Jun-14 06:00N 37°51' E 023°33'612.7
2018-Jun-14 05:30N 37°56' E 023°38'0 0.0
2018-Jun-13 16:44N 37°57' E 023°38'310.5
2018-Jun-13 16:29N 37°55' E 023°36'613.2
2018-Jun-13 16:00N 37°50' E 023°31'612.7
2018-Jun-13 15:30N 37°45' E 023°25'1 1.5
2018-Jun-13 14:59N 37°45' E 023°26'0 0.0
2018-Jun-13 14:30N 37°45' E 023°26'0 0.0
2018-Jun-13 14:00N 37°45' E 023°26'0 0.0
2018-Jun-13 13:30N 37°45' E 023°26'0 0.0
2018-Jun-13 13:01N 37°45' E 023°26'0 0.0
2018-Jun-13 12:30N 37°45' E 023°26'0 0.0
2018-Jun-13 12:00N 37°45' E 023°26'0 0.0
2018-Jun-13 11:30N 37°45' E 023°26'0 0.0
2018-Jun-13 11:00N 37°45' E 023°26'0 0.0
2018-Jun-13 10:31N 37°45' E 023°26'0 0.0
2018-Jun-13 10:00N 37°45' E 023°26'0 0.0
2018-Jun-13 09:31N 37°45' E 023°26'0 0.0
2018-Jun-13 09:01N 37°45' E 023°26'0 0.0
2018-Jun-13 08:30N 37°45' E 023°26'0 0.0
2018-Jun-13 08:00N 37°45' E 023°26'0 0.0
2018-Jun-13 07:30N 37°45' E 023°26'0 0.0
2018-Jun-13 07:00N 37°45' E 023°26'3 5.2
2018-Jun-13 06:30N 37°47' E 023°27'712.3
2018-Jun-13 05:58N 37°51' E 023°33'612.3
2018-Jun-13 05:31N 37°56' E 023°37'1 2.4
2018-Jun-13 05:00N 37°57' E 023°39'0 0.0
2018-Jun-12 17:08N 37°57' E 023°39'0 0.0
2018-Jun-12 17:00N 37°57' E 023°39'4 8.7
2018-Jun-12 16:30N 37°54' E 023°35'611.7
2018-Jun-12 16:00N 37°49' E 023°30'611.2
2018-Jun-12 15:30N 37°45' E 023°25'1 1.5
2018-Jun-12 15:00N 37°45' E 023°26'3 6.2
2018-Jun-12 14:30N 37°48' E 023°27'611.2
2018-Jun-12 14:00N 37°51' E 023°33'611.1
2018-Jun-12 13:30N 37°56' E 023°37'2 3.4
2018-Jun-12 13:00N 37°57' E 023°39'2 3.6
2018-Jun-12 12:30N 37°56' E 023°36'611.5
2018-Jun-12 12:00N 37°51' E 023°32'611.8
2018-Jun-12 11:30N 37°47' E 023°27'3 4.9
2018-Jun-12 10:57N 37°45' E 023°25'2 5.2
2018-Jun-12 10:30N 37°47' E 023°26'611.4
2018-Jun-12 10:00N 37°51' E 023°32'611.6
2018-Jun-12 09:30N 37°55' E 023°36'2 4.5
2018-Jun-12 09:00N 37°57' E 023°39'3 6.3
2018-Jun-12 08:30N 37°54' E 023°36'611.4
2018-Jun-12 08:00N 37°50' E 023°31'611.8
2018-Jun-12 07:30N 37°46' E 023°25'2 3.2
2018-Jun-12 07:00N 37°45' E 023°25'4 8.1
2018-Jun-12 06:30N 37°48' E 023°29'611.1
2018-Jun-12 06:00N 37°52' E 023°33'611.1
2018-Jun-12 05:30N 37°56' E 023°38'1 1.4
2018-Jun-12 05:00N 37°57' E 023°39'0 0.0
2018-Jun-11 17:06N 37°57' E 023°39'0 0.1
2018-Jun-11 17:00N 37°57' E 023°39'3 6.2
2018-Jun-11 16:29N 37°54' E 023°36'612.2
2018-Jun-11 16:00N 37°50' E 023°31'612.2
2018-Jun-11 15:30N 37°46' E 023°25'1 2.7
2018-Jun-11 15:00N 37°45' E 023°25'2 4.3
2018-Jun-11 14:30N 37°47' E 023°26'612.6
2018-Jun-11 14:00N 37°51' E 023°32'612.5
2018-Jun-11 13:30N 37°56' E 023°37'2 3.0
2018-Jun-11 13:00N 37°57' E 023°39'1 2.6
2018-Jun-11 12:30N 37°56' E 023°37'612.0
2018-Jun-11 12:00N 37°51' E 023°33'612.2
2018-Jun-11 11:30N 37°47' E 023°27'3 5.5
2018-Jun-11 11:00N 37°45' E 023°25'2 4.9
2018-Jun-11 10:30N 37°47' E 023°27'612.2
2018-Jun-11 10:00N 37°51' E 023°33'612.7
2018-Jun-11 09:30N 37°56' E 023°37'1 2.7
2018-Jun-11 09:00N 37°57' E 023°39'4 7.1
2018-Jun-11 08:30N 37°54' E 023°35'612.2
2018-Jun-11 08:00N 37°50' E 023°30'611.6
2018-Jun-11 07:28N 37°45' E 023°25'0 1.0
2018-Jun-11 06:59N 37°45' E 023°25'3 6.2
2018-Jun-11 06:30N 37°47' E 023°27'612.1
2018-Jun-11 06:00N 37°51' E 023°33'612.2
2018-Jun-11 05:30N 37°56' E 023°37'1 1.8
2018-Jun-11 05:00N 37°57' E 023°38'0 0.0
2018-Jun-11 04:30N 37°57' E 023°38'0 0.0
2018-Jun-10 20:26N 37°57' E 023°38'1 3.4
2018-Jun-10 20:00N 37°56' E 023°37'612.6
2018-Jun-10 19:30N 37°51' E 023°32'612.6
2018-Jun-10 19:00N 37°47' E 023°26'2 4.3
2018-Jun-10 18:30N 37°45' E 023°25'0 0.1
2018-Jun-10 18:00N 37°45' E 023°25'3 7.0
2018-Jun-10 17:30N 37°48' E 023°28'612.5
2018-Jun-10 17:00N 37°52' E 023°33'611.9
2018-Jun-10 16:30N 37°57' E 023°38'2 3.5
2018-Jun-10 16:00N 37°55' E 023°37'612.7
2018-Jun-10 15:30N 37°50' E 023°32'612.6
2018-Jun-10 15:00N 37°47' E 023°25'2 3.7
2018-Jun-10 14:30N 37°45' E 023°26'4 4.2
2018-Jun-10 13:30N 37°48' E 023°29'612.1
2018-Jun-10 13:00N 37°52' E 023°34'511.0
2018-Jun-10 12:30N 37°57' E 023°39'0 0.0
2018-Jun-10 12:00N 37°57' E 023°38'611.3
2018-Jun-10 11:30N 37°52' E 023°34'612.7
2018-Jun-10 11:00N 37°48' E 023°28'4 7.6
2018-Jun-10 10:30N 37°45' E 023°25'0 0.2
2018-Jun-10 10:00N 37°45' E 023°25'5 9.9
2018-Jun-10 09:30N 37°49' E 023°29'612.1
2018-Jun-10 09:00N 37°53' E 023°34'5 9.8
2018-Jun-10 08:30N 37°57' E 023°39'0 0.0
2018-Jun-10 08:00N 37°57' E 023°39'0 0.0
2018-Jun-10 07:30N 37°57' E 023°39'0 0.0
2018-Jun-09 17:03N 37°57' E 023°39'0 0.0
2018-Jun-09 17:00N 37°57' E 023°39'3 5.6
2018-Jun-09 16:30N 37°55' E 023°36'612.4
2018-Jun-09 16:00N 37°50' E 023°31'7 6.7
2018-Jun-09 15:00N 37°45' E 023°26'2 4.2
2018-Jun-09 14:30N 37°47' E 023°26'612.3
2018-Jun-09 14:00N 37°51' E 023°32'612.2
2018-Jun-09 13:30N 37°55' E 023°37'2 3.5
2018-Jun-09 13:00N 37°57' E 023°39'2 4.5
2018-Jun-09 12:30N 37°55' E 023°36'713.1
2018-Jun-09 12:00N 37°50' E 023°31'612.8
2018-Jun-09 11:30N 37°46' E 023°25'1 2.9
2018-Jun-09 11:00N 37°45' E 023°25'4 8.2
2018-Jun-09 10:30N 37°48' E 023°28'612.1
2018-Jun-09 10:00N 37°53' E 023°34'511.0
2018-Jun-09 09:30N 37°57' E 023°38'0 0.4
2018-Jun-09 09:00N 37°57' E 023°38'2 4.6
2018-Jun-09 08:30N 37°55' E 023°36'713.0
2018-Jun-09 08:00N 37°50' E 023°31'712.5
2018-Jun-09 07:27N 37°45' E 023°25'1 1.9
2018-Jun-09 06:59N 37°45' E 023°26'4 7.4
2018-Jun-09 06:30N 37°48' E 023°28'611.8
2018-Jun-09 06:00N 37°52' E 023°33'611.7
2018-Jun-09 05:30N 37°56' E 023°38'1 1.1
2018-Jun-09 05:00N 37°57' E 023°39'0 0.0
2018-Jun-08 17:05N 37°57' E 023°39'0 0.0
2018-Jun-08 17:00N 37°57' E 023°39'3 6.4
2018-Jun-08 16:30N 37°54' E 023°36'713.1
2018-Jun-08 16:00N 37°49' E 023°30'611.9
2018-Jun-08 15:30N 37°45' E 023°25'1 1.5
2018-Jun-08 15:00N 37°45' E 023°25'2 4.7
2018-Jun-08 14:30N 37°47' E 023°26'612.2
2018-Jun-08 14:00N 37°51' E 023°32'611.8
2018-Jun-08 13:30N 37°56' E 023°36'  
Track history (hours):
 
Tides and Currents Weather Stations Pressure Air Temp Water Temp Dewpoint Dewpoint Depression Visibility Wind Speed Wind Dir Waves Ship Positions

Ag Nektarios Aiginas

Last reported at 2018-Jun-18 13:01 UTC. Time now 2018-Jun-18 13:03 UTC.
Position N 37°57' E 023°38'.

Length 75 m; draft 2.7 m.

Type: Passenger vessel. MMSI: 237021400.

Date/timePositionNaut miles runAvg speedWind from/ knotsBaromVisibWave heightAir tempDewpointWater temp
2018-Jun-18 13:01N 37°57' E 023°38'0 0.0
2018-Jun-18 12:31N 37°57' E 023°38'5 9.8
2018-Jun-18 12:01N 37°53' E 023°35'713.0
2018-Jun-18 11:31N 37°48' E 023°29'4 8.8
2018-Jun-18 11:01N 37°45' E 023°25'2 3.2
2018-Jun-18 10:30N 37°46' E 023°25'612.9
2018-Jun-18 10:01N 37°50' E 023°32'612.7
2018-Jun-18 09:31N 37°55' E 023°36'2 4.5
2018-Jun-18 09:01N 37°57' E 023°39'0 0.9
2018-Jun-18 08:31N 37°56' E 023°38'612.3
2018-Jun-18 08:01N 37°52' E 023°33'612.8
2018-Jun-18 07:31N 37°47' E 023°27'3 5.9
2018-Jun-18 07:00N 37°45' E 023°25'2 4.8
2018-Jun-18 06:31N 37°47' E 023°26'713.0
2018-Jun-18 06:00N 37°51' E 023°33'612.8
2018-Jun-18 05:30N 37°56' E 023°37'1 1.7
2018-Jun-18 05:00N 37°57' E 023°38'0 0.0
2018-Jun-18 04:30N 37°57' E 023°38'0 0.0
2018-Jun-17 20:12N 37°57' E 023°38'0 0.0
2018-Jun-17 20:00N 37°57' E 023°38'5 9.8
2018-Jun-17 19:30N 37°53' E 023°34'612.8
2018-Jun-17 19:00N 37°49' E 023°29'5 7.8
2018-Jun-17 18:25N 37°45' E 023°25'0 0.0
2018-Jun-17 17:59N 37°45' E 023°25'2 3.2
2018-Jun-17 17:30N 37°46' E 023°25'713.3
2018-Jun-17 17:00N 37°50' E 023°32'713.1
2018-Jun-17 16:30N 37°56' E 023°37'1 2.9
2018-Jun-17 16:00N 37°57' E 023°38'510.8
2018-Jun-17 15:30N 37°52' E 023°34'612.7
2018-Jun-17 15:00N 37°48' E 023°28'4 6.9
2018-Jun-17 14:27N 37°45' E 023°25'0 0.0
2018-Jun-17 14:00N 37°45' E 023°25'4 7.1
2018-Jun-17 13:30N 37°48' E 023°28'613.1
2018-Jun-17 13:00N 37°52' E 023°34'611.7
2018-Jun-17 12:30N 37°57' E 023°39'0 0.0
2018-Jun-17 12:00N 37°57' E 023°39'5 9.2
2018-Jun-17 11:30N 37°53' E 023°35'612.9
2018-Jun-17 11:00N 37°49' E 023°29'5 9.4
2018-Jun-17 10:30N 37°45' E 023°26'0 0.0
2018-Jun-17 10:00N 37°45' E 023°26'4 7.2
2018-Jun-17 09:30N 37°48' E 023°28'713.1
2018-Jun-17 09:00N 37°52' E 023°34'611.5
2018-Jun-17 08:30N 37°57' E 023°39'0 0.0
2018-Jun-17 08:00N 37°57' E 023°39'0 0.0
2018-Jun-17 07:30N 37°57' E 023°39'0 0.0
2018-Jun-16 16:51N 37°57' E 023°39'1 4.3
2018-Jun-16 16:31N 37°56' E 023°37'612.9
2018-Jun-16 16:01N 37°50' E 023°32'713.2
2018-Jun-16 15:31N 37°47' E 023°26'2 3.1
2018-Jun-16 14:52N 37°45' E 023°25'1 3.6
2018-Jun-16 14:30N 37°46' E 023°25'612.8
2018-Jun-16 14:01N 37°50' E 023°31'612.8
2018-Jun-16 13:31N 37°55' E 023°36'3 5.2
2018-Jun-16 13:01N 37°57' E 023°39'1 2.7
2018-Jun-16 12:30N 37°56' E 023°37'713.2
2018-Jun-16 12:00N 37°51' E 023°32'713.1
2018-Jun-16 11:30N 37°47' E 023°25'2 3.8
2018-Jun-16 11:00N 37°45' E 023°26'1 2.8
2018-Jun-16 10:30N 37°46' E 023°25'613.1
2018-Jun-16 10:01N 37°50' E 023°31'713.0
2018-Jun-16 09:31N 37°55' E 023°36'2 4.4
2018-Jun-16 09:01N 37°57' E 023°39'0 0.3
2018-Jun-16 08:31N 37°57' E 023°38'612.1
2018-Jun-16 08:00N 37°52' E 023°34'713.0
2018-Jun-16 07:30N 37°48' E 023°27'3 6.2
2018-Jun-16 07:00N 37°45' E 023°25'2 4.3
2018-Jun-16 06:30N 37°47' E 023°26'612.9
2018-Jun-16 06:01N 37°51' E 023°32'712.9
2018-Jun-16 05:30N 37°56' E 023°37'1 2.6
2018-Jun-16 05:00N 37°57' E 023°38'0 0.0
2018-Jun-15 17:02N 37°57' E 023°38'0 0.0
2018-Jun-15 17:00N 37°57' E 023°38'3 6.2
2018-Jun-15 16:29N 37°54' E 023°37'510.7
2018-Jun-15 16:00N 37°50' E 023°33'713.5
2018-Jun-15 15:30N 37°46' E 023°25'2 3.6
2018-Jun-15 15:00N 37°45' E 023°25'3 5.7
2018-Jun-15 14:30N 37°47' E 023°28'611.2
2018-Jun-15 14:00N 37°51' E 023°33'611.7
2018-Jun-15 13:30N 37°56' E 023°37'2 3.2
2018-Jun-15 13:00N 37°57' E 023°39'0 0.0
2018-Jun-15 12:30N 37°57' E 023°39'5 9.9
2018-Jun-15 12:00N 37°53' E 023°35'712.7
2018-Jun-15 11:29N 37°48' E 023°29'4 9.0
2018-Jun-15 11:00N 37°45' E 023°25'2 3.1
2018-Jun-15 10:30N 37°46' E 023°25'612.5
2018-Jun-15 10:00N 37°50' E 023°31'612.7
2018-Jun-15 09:30N 37°55' E 023°36'2 4.9
2018-Jun-15 09:00N 37°57' E 023°39'0 0.7
2018-Jun-15 08:30N 37°57' E 023°38'612.1
2018-Jun-15 08:00N 37°52' E 023°33'612.9
2018-Jun-15 07:30N 37°48' E 023°27'3 6.1
2018-Jun-15 07:00N 37°45' E 023°25'3 5.2
2018-Jun-15 06:30N 37°47' E 023°26'612.8
2018-Jun-15 06:00N 37°51' E 023°33'712.4
2018-Jun-15 05:28N 37°56' E 023°38'0 1.0
2018-Jun-15 05:00N 37°57' E 023°39'0 0.0
2018-Jun-15 04:30N 37°57' E 023°39'0 0.0
2018-Jun-14 16:49N 37°57' E 023°39'1 3.8
2018-Jun-14 16:30N 37°56' E 023°37'713.1
2018-Jun-14 16:00N 37°51' E 023°32'713.4
2018-Jun-14 15:30N 37°47' E 023°26'2 3.9
2018-Jun-14 15:00N 37°45' E 023°25'1 2.7
2018-Jun-14 14:30N 37°46' E 023°25'612.7
2018-Jun-14 14:00N 37°50' E 023°31'613.0
2018-Jun-14 13:30N 37°55' E 023°36'2 4.7
2018-Jun-14 13:00N 37°57' E 023°39'0 0.0
2018-Jun-14 12:30N 37°57' E 023°39'5 9.9
2018-Jun-14 12:00N 37°53' E 023°35'612.9
2018-Jun-14 11:30N 37°48' E 023°29'4 8.9
2018-Jun-14 11:00N 37°45' E 023°25'1 2.5
2018-Jun-14 10:30N 37°46' E 023°25'612.7
2018-Jun-14 10:00N 37°50' E 023°31'613.0
2018-Jun-14 09:30N 37°55' E 023°36'3 5.2
2018-Jun-14 09:00N 37°57' E 023°39'0 0.3
2018-Jun-14 08:30N 37°57' E 023°38'612.0
2018-Jun-14 08:00N 37°52' E 023°34'713.0
2018-Jun-14 07:30N 37°48' E 023°28'3 7.0
2018-Jun-14 07:00N 37°45' E 023°25'2 5.0
2018-Jun-14 06:30N 37°47' E 023°27'612.7
2018-Jun-14 06:00N 37°51' E 023°33'612.7
2018-Jun-14 05:30N 37°56' E 023°38'0 0.0
2018-Jun-13 16:44N 37°57' E 023°38'310.5
2018-Jun-13 16:29N 37°55' E 023°36'613.2
2018-Jun-13 16:00N 37°50' E 023°31'612.7
2018-Jun-13 15:30N 37°45' E 023°25'1 1.5
2018-Jun-13 14:59N 37°45' E 023°26'0 0.0
2018-Jun-13 14:30N 37°45' E 023°26'0 0.0
2018-Jun-13 14:00N 37°45' E 023°26'0 0.0
2018-Jun-13 13:30N 37°45' E 023°26'0 0.0
2018-Jun-13 13:01N 37°45' E 023°26'0 0.0
2018-Jun-13 12:30N 37°45' E 023°26'0 0.0
2018-Jun-13 12:00N 37°45' E 023°26'0 0.0
2018-Jun-13 11:30N 37°45' E 023°26'0 0.0
2018-Jun-13 11:00N 37°45' E 023°26'0 0.0
2018-Jun-13 10:31N 37°45' E 023°26'0 0.0
2018-Jun-13 10:00N 37°45' E 023°26'0 0.0
2018-Jun-13 09:31N 37°45' E 023°26'0 0.0
2018-Jun-13 09:01N 37°45' E 023°26'0 0.0
2018-Jun-13 08:30N 37°45' E 023°26'0 0.0
2018-Jun-13 08:00N 37°45' E 023°26'0 0.0
2018-Jun-13 07:30N 37°45' E 023°26'0 0.0
2018-Jun-13 07:00N 37°45' E 023°26'3 5.2
2018-Jun-13 06:30N 37°47' E 023°27'712.3
2018-Jun-13 05:58N 37°51' E 023°33'612.3
2018-Jun-13 05:31N 37°56' E 023°37'1 2.4
2018-Jun-13 05:00N 37°57' E 023°39'0 0.0
2018-Jun-12 17:08N 37°57' E 023°39'0 0.0
2018-Jun-12 17:00N 37°57' E 023°39'4 8.7
2018-Jun-12 16:30N 37°54' E 023°35'611.7
2018-Jun-12 16:00N 37°49' E 023°30'611.2
2018-Jun-12 15:30N 37°45' E 023°25'1 1.5
2018-Jun-12 15:00N 37°45' E 023°26'3 6.2
2018-Jun-12 14:30N 37°48' E 023°27'611.2
2018-Jun-12 14:00N 37°51' E 023°33'611.1
2018-Jun-12 13:30N 37°56' E 023°37'2 3.4
2018-Jun-12 13:00N 37°57' E 023°39'2 3.6
2018-Jun-12 12:30N 37°56' E 023°36'611.5
2018-Jun-12 12:00N 37°51' E 023°32'611.8
2018-Jun-12 11:30N 37°47' E 023°27'3 4.9
2018-Jun-12 10:57N 37°45' E 023°25'2 5.2
2018-Jun-12 10:30N 37°47' E 023°26'611.4
2018-Jun-12 10:00N 37°51' E 023°32'611.6
2018-Jun-12 09:30N 37°55' E 023°36'2 4.5
2018-Jun-12 09:00N 37°57' E 023°39'3 6.3
2018-Jun-12 08:30N 37°54' E 023°36'611.4
2018-Jun-12 08:00N 37°50' E 023°31'611.8
2018-Jun-12 07:30N 37°46' E 023°25'2 3.2
2018-Jun-12 07:00N 37°45' E 023°25'4 8.1
2018-Jun-12 06:30N 37°48' E 023°29'611.1
2018-Jun-12 06:00N 37°52' E 023°33'611.1
2018-Jun-12 05:30N 37°56' E 023°38'1 1.4
2018-Jun-12 05:00N 37°57' E 023°39'0 0.0
2018-Jun-11 17:06N 37°57' E 023°39'0 0.1
2018-Jun-11 17:00N 37°57' E 023°39'3 6.2
2018-Jun-11 16:29N 37°54' E 023°36'612.2
2018-Jun-11 16:00N 37°50' E 023°31'612.2
2018-Jun-11 15:30N 37°46' E 023°25'1 2.7
2018-Jun-11 15:00N 37°45' E 023°25'2 4.3
2018-Jun-11 14:30N 37°47' E 023°26'612.6
2018-Jun-11 14:00N 37°51' E 023°32'612.5
2018-Jun-11 13:30N 37°56' E 023°37'2 3.0
2018-Jun-11 13:00N 37°57' E 023°39'1 2.6
2018-Jun-11 12:30N 37°56' E 023°37'612.0
2018-Jun-11 12:00N 37°51' E 023°33'612.2
2018-Jun-11 11:30N 37°47' E 023°27'3 5.5
2018-Jun-11 11:00N 37°45' E 023°25'2 4.9
2018-Jun-11 10:30N 37°47' E 023°27'612.2
2018-Jun-11 10:00N 37°51' E 023°33'612.7
2018-Jun-11 09:30N 37°56' E 023°37'1 2.7
2018-Jun-11 09:00N 37°57' E 023°39'4 7.1
2018-Jun-11 08:30N 37°54' E 023°35'612.2
2018-Jun-11 08:00N 37°50' E 023°30'611.6
2018-Jun-11 07:28N 37°45' E 023°25'0 1.0
2018-Jun-11 06:59N 37°45' E 023°25'3 6.2
2018-Jun-11 06:30N 37°47' E 023°27'612.1
2018-Jun-11 06:00N 37°51' E 023°33'612.2
2018-Jun-11 05:30N 37°56' E 023°37'1 1.8
2018-Jun-11 05:00N 37°57' E 023°38'0 0.0
2018-Jun-11 04:30N 37°57' E 023°38'0 0.0
2018-Jun-10 20:26N 37°57' E 023°38'1 3.4
2018-Jun-10 20:00N 37°56' E 023°37'612.6
2018-Jun-10 19:30N 37°51' E 023°32'612.6
2018-Jun-10 19:00N 37°47' E 023°26'2 4.3
2018-Jun-10 18:30N 37°45' E 023°25'0 0.1
2018-Jun-10 18:00N 37°45' E 023°25'3 7.0
2018-Jun-10 17:30N 37°48' E 023°28'612.5
2018-Jun-10 17:00N 37°52' E 023°33'611.9
2018-Jun-10 16:30N 37°57' E 023°38'2 3.5
2018-Jun-10 16:00N 37°55' E 023°37'612.7
2018-Jun-10 15:30N 37°50' E 023°32'612.6
2018-Jun-10 15:00N 37°47' E 023°25'2 3.7
2018-Jun-10 14:30N 37°45' E 023°26'4 4.2
2018-Jun-10 13:30N 37°48' E 023°29'612.1
2018-Jun-10 13:00N 37°52' E 023°34'511.0
2018-Jun-10 12:30N 37°57' E 023°39'0 0.0
2018-Jun-10 12:00N 37°57' E 023°38'611.3
2018-Jun-10 11:30N 37°52' E 023°34'612.7
2018-Jun-10 11:00N 37°48' E 023°28'4 7.6
2018-Jun-10 10:30N 37°45' E 023°25'0 0.2
2018-Jun-10 10:00N 37°45' E 023°25'5 9.9
2018-Jun-10 09:30N 37°49' E 023°29'612.1
2018-Jun-10 09:00N 37°53' E 023°34'5 9.8
2018-Jun-10 08:30N 37°57' E 023°39'0 0.0
2018-Jun-10 08:00N 37°57' E 023°39'0 0.0
2018-Jun-10 07:30N 37°57' E 023°39'0 0.0
2018-Jun-09 17:03N 37°57' E 023°39'0 0.0
2018-Jun-09 17:00N 37°57' E 023°39'3 5.6
2018-Jun-09 16:30N 37°55' E 023°36'612.4
2018-Jun-09 16:00N 37°50' E 023°31'7 6.7
2018-Jun-09 15:00N 37°45' E 023°26'2 4.2
2018-Jun-09 14:30N 37°47' E 023°26'612.3
2018-Jun-09 14:00N 37°51' E 023°32'612.2
2018-Jun-09 13:30N 37°55' E 023°37'2 3.5
2018-Jun-09 13:00N 37°57' E 023°39'2 4.5
2018-Jun-09 12:30N 37°55' E 023°36'713.1
2018-Jun-09 12:00N 37°50' E 023°31'612.8
2018-Jun-09 11:30N 37°46' E 023°25'1 2.9
2018-Jun-09 11:00N 37°45' E 023°25'4 8.2
2018-Jun-09 10:30N 37°48' E 023°28'612.1
2018-Jun-09 10:00N 37°53' E 023°34'511.0
2018-Jun-09 09:30N 37°57' E 023°38'0 0.4
2018-Jun-09 09:00N 37°57' E 023°38'2 4.6
2018-Jun-09 08:30N 37°55' E 023°36'713.0
2018-Jun-09 08:00N 37°50' E 023°31'712.5
2018-Jun-09 07:27N 37°45' E 023°25'1 1.9
2018-Jun-09 06:59N 37°45' E 023°26'4 7.4
2018-Jun-09 06:30N 37°48' E 023°28'611.8
2018-Jun-09 06:00N 37°52' E 023°33'611.7
2018-Jun-09 05:30N 37°56' E 023°38'1 1.1
2018-Jun-09 05:00N 37°57' E 023°39'0 0.0
2018-Jun-08 17:05N 37°57' E 023°39'0 0.0
2018-Jun-08 17:00N 37°57' E 023°39'3 6.4
2018-Jun-08 16:30N 37°54' E 023°36'713.1
2018-Jun-08 16:00N 37°49' E 023°30'611.9
2018-Jun-08 15:30N 37°45' E 023°25'1 1.5
2018-Jun-08 15:00N 37°45' E 023°25'2 4.7
2018-Jun-08 14:30N 37°47' E 023°26'612.2
2018-Jun-08 14:00N 37°51' E 023°32'611.8
2018-Jun-08 13:30N 37°56' E 023°36'  

Dump ship's entire track history